Time;durP1;ratioP1;P1;durP2;ratioP2;P2;SDS_P1;SDS_P2;PMS_P1;PMS_P2;Temp;Humidity;BMP_temperature;BMP_pressure;BME280_temperature;BME280_humidity;BME280_pressure;Samples;Min_cycle;Max_cycle;Signal;HPM_P1;HPM_P2
2021/07/21 00:00:20;;;;;;;1.17;1.10;;;24.20;99.90;;;;;;5002136;28;20477;-75
2021/07/21 00:02:45;;;;;;;0.80;0.80;;;24.30;99.90;;;;;;4999587;28;20077;-75
2021/07/21 00:05:13;;;;;;;1.27;1.13;;;24.30;99.90;;;;;;5001371;28;20053;-77
2021/07/21 00:07:40;;;;;;;1.00;1.00;;;24.30;99.90;;;;;;5002663;28;20018;-76
2021/07/21 00:10:07;;;;;;;1.38;1.27;;;24.40;99.90;;;;;;5001836;28;20089;-75
2021/07/21 00:15:19;;;;;;;16.83;1.35;;;24.40;99.90;;;;;;5002526;28;20081;-76
2021/07/21 00:17:47;;;;;;;1.10;1.00;;;24.30;99.90;;;;;;4985289;28;20065;-75
2021/07/21 00:20:15;;;;;;;2.90;2.55;;;24.20;99.90;;;;;;5002738;28;20031;-76
2021/07/21 00:22:42;;;;;;;0.80;0.80;;;24.20;99.90;;;;;;4980750;28;20035;-75
2021/07/21 00:25:12;;;;;;;1.23;1.13;;;24.20;99.90;;;;;;5001367;28;20100;-74
2021/07/21 00:27:38;;;;;;;1.30;1.20;;;24.10;99.90;;;;;;5002747;28;20189;-76
2021/07/21 00:30:09;;;;;;;0.98;0.98;;;24.10;99.90;;;;;;4999740;28;20825;-74
2021/07/21 00:32:35;;;;;;;1.63;1.52;;;24.10;99.90;;;;;;5002404;28;20038;-75
2021/07/21 00:35:03;;;;;;;1.13;1.08;;;24.00;99.90;;;;;;4997670;28;20022;-76
2021/07/21 00:37:29;;;;;;;1.08;1.05;;;24.00;99.90;;;;;;5001593;28;20109;-75
2021/07/21 00:39:55;;;;;;;1.35;1.25;;;24.10;99.90;;;;;;4984688;28;20117;-76
2021/07/21 00:42:20;;;;;;;4.60;3.72;;;24.10;99.90;;;;;;5000267;28;20062;-74
2021/07/21 00:44:47;;;;;;;0.82;0.82;;;24.10;99.90;;;;;;5001447;28;20156;-75
2021/07/21 00:47:13;;;;;;;1.45;1.35;;;23.80;99.90;;;;;;5001789;28;20081;-77
2021/07/21 00:49:40;;;;;;;5.18;2.55;;;23.80;99.90;;;;;;4999790;28;20105;-77
2021/07/21 00:52:08;;;;;;;1.48;1.38;;;23.70;99.90;;;;;;5001216;28;20073;-74
2021/07/21 00:54:35;;;;;;;0.98;0.98;;;23.80;99.90;;;;;;5001629;28;20043;-75
2021/07/21 00:57:03;;;;;;;1.30;1.20;;;24.00;99.90;;;;;;4982503;28;20041;-76
2021/07/21 00:59:33;;;;;;;1.60;1.50;;;23.90;99.90;;;;;;4982828;28;20041;-76
2021/07/21 01:01:58;;;;;;;1.20;1.10;;;23.90;99.90;;;;;;5001976;28;20041;-75
2021/07/21 01:04:24;;;;;;;1.20;1.10;;;23.90;99.90;;;;;;5000045;28;20388;-74
2021/07/21 01:06:52;;;;;;;1.10;1.02;;;24.00;99.90;;;;;;5002411;28;20050;-75
2021/07/21 01:09:18;;;;;;;4.82;2.78;;;23.80;99.90;;;;;;5011826;28;20041;-74
2021/07/21 01:12:13;;;;;;;1.52;1.42;;;23.70;99.90;;;;;;5011710;28;20073;-75
2021/07/21 01:15:07;;;;;;;1.60;1.50;;;23.70;99.90;;;;;;4991683;28;20053;-77
2021/07/21 01:17:46;;;;;;;1.27;1.17;;;23.80;99.90;;;;;;5011882;28;20145;-75
2021/07/21 01:20:42;;;;;;;0.93;0.90;;;23.90;99.90;;;;;;5012105;28;20053;-76
2021/07/21 01:23:12;;;;;;;1.63;1.42;;;23.90;99.90;;;;;;5004987;28;20062;-74
2021/07/21 01:25:59;;;;;;;3.95;1.73;;;23.80;99.90;;;;;;4995712;28;20042;-77
2021/07/21 01:28:28;;;;;;;0.80;0.80;;;23.70;99.90;;;;;;4991991;28;20053;-77
2021/07/21 01:30:56;;;;;;;2.72;1.88;;;23.70;99.90;;;;;;4991909;28;20338;-77
2021/07/21 01:33:23;;;;;;;0.80;0.80;;;23.70;99.90;;;;;;4991843;28;20052;-77
2021/07/21 01:36:09;;;;;;;1.33;1.23;;;23.70;99.90;;;;;;4974570;28;20035;-77
2021/07/21 01:38:41;;;;;;;0.90;0.90;;;23.50;99.90;;;;;;4991835;28;20034;-76
2021/07/21 01:41:12;;;;;;;1.55;1.45;;;23.30;99.90;;;;;;4991959;28;20100;-77
2021/07/21 01:43:41;;;;;;;1.13;1.02;;;23.20;99.90;;;;;;4991789;28;20034;-77
2021/07/21 01:46:07;;;;;;;1.33;1.23;;;23.20;99.90;;;;;;4992535;28;20034;-77
2021/07/21 01:48:36;;;;;;;2.63;2.42;;;23.40;99.90;;;;;;4991819;28;20065;-76
2021/07/21 01:51:05;;;;;;;9.75;5.03;;;23.40;99.90;;;;;;4991953;28;20035;-77
2021/07/21 01:53:36;;;;;;;1.20;1.10;;;23.40;99.90;;;;;;4974399;28;20193;-77
2021/07/21 01:56:05;;;;;;;1.35;1.25;;;23.20;99.90;;;;;;4992412;28;20106;-77
2021/07/21 01:58:33;;;;;;;1.15;1.08;;;23.40;99.90;;;;;;4991993;28;20043;-77
2021/07/21 02:01:00;;;;;;;1.73;1.63;;;23.40;99.90;;;;;;4992419;28;20034;-77
2021/07/21 02:03:28;;;;;;;1.67;1.58;;;23.30;99.90;;;;;;4991963;28;20046;-77
2021/07/21 02:05:59;;;;;;;2.35;1.50;;;23.20;99.90;;;;;;4991982;28;20454;-76
2021/07/21 02:08:27;;;;;;;1.80;1.48;;;22.90;99.90;;;;;;4991579;28;20065;-76
2021/07/21 02:10:57;;;;;;;2.00;1.60;;;23.00;99.90;;;;;;4991630;28;20069;-76
2021/07/21 02:13:25;;;;;;;1.40;1.30;;;23.20;99.90;;;;;;4991887;28;20038;-77
2021/07/21 02:15:51;;;;;;;3.75;2.72;;;23.40;99.90;;;;;;4992252;28;20040;-77
2021/07/21 02:18:19;;;;;;;0.95;0.95;;;23.40;99.90;;;;;;4991426;28;20065;-78
2021/07/21 02:20:49;;;;;;;1.00;1.00;;;23.40;99.90;;;;;;4992092;28;20038;-76
2021/07/21 02:23:17;;;;;;;1.30;1.20;;;23.20;99.90;;;;;;4991854;28;20042;-78
2021/07/21 02:25:43;;;;;;;1.00;1.00;;;23.30;99.90;;;;;;4991703;28;20498;-77
2021/07/21 02:28:09;;;;;;;1.50;1.40;;;23.40;99.90;;;;;;4991468;28;20034;-76
2021/07/21 02:30:36;;;;;;;2.90;1.90;;;23.10;99.90;;;;;;4991592;28;20049;-74
2021/07/21 02:33:13;;;;;;;1.30;1.20;;;23.30;99.90;;;;;;4991263;28;20097;-75
2021/07/21 02:35:38;;;;;;;1.58;1.30;;;23.30;99.90;;;;;;4991513;28;20027;-76
2021/07/21 02:38:05;;;;;;;0.98;0.98;;;23.30;99.90;;;;;;4991599;28;20035;-75
2021/07/21 02:40:31;;;;;;;1.27;1.17;;;23.00;99.90;;;;;;4991120;28;20030;-76
2021/07/21 02:42:57;;;;;;;2.97;1.75;;;23.40;99.90;;;;;;4991507;28;20146;-75
2021/07/21 02:45:24;;;;;;;1.42;0.98;;;23.40;99.90;;;;;;4991528;28;20068;-74
2021/07/21 02:47:49;;;;;;;1.40;1.30;;;23.30;99.90;;;;;;4991135;28;20042;-75
2021/07/21 02:50:17;;;;;;;1.02;1.00;;;23.30;99.90;;;;;;4991169;28;20038;-76
2021/07/21 02:52:57;;;;;;;1.27;1.17;;;23.40;99.90;;;;;;4992980;28;20045;-75
2021/07/21 02:55:45;;;;;;;1.33;1.23;;;23.20;99.90;;;;;;4994995;28;20406;-75
2021/07/21 02:58:48;;;;;;;2.70;1.75;;;23.30;99.90;;;;;;4993600;28;20038;-76
2021/07/21 03:01:19;;;;;;;1.38;1.27;;;23.30;99.90;;;;;;4995577;28;20046;-77
2021/07/21 03:03:46;;;;;;;2.05;1.70;;;23.20;99.90;;;;;;4978552;28;20042;-77
2021/07/21 03:06:16;;;;;;;2.55;2.35;;;23.20;99.90;;;;;;4974949;28;20065;-76
2021/07/21 03:08:44;;;;;;;1.70;1.60;;;23.20;99.90;;;;;;4974782;28;20034;-76
2021/07/21 03:11:12;;;;;;;0.90;0.90;;;23.20;99.90;;;;;;4974986;28;20122;-77
2021/07/21 03:13:47;;;;;;;2.35;1.77;;;23.20;99.90;;;;;;4994477;28;20125;-75
2021/07/21 03:16:17;;;;;;;1.27;1.17;;;23.20;99.90;;;;;;4997162;28;20660;-76
2021/07/21 03:18:47;;;;;;;1.20;1.10;;;23.30;99.90;;;;;;4994581;28;20038;-77
2021/07/21 03:21:13;;;;;;;1.23;1.13;;;23.30;99.90;;;;;;4994372;28;20018;-77
2021/07/21 03:23:39;;;;;;;0.85;0.85;;;23.30;99.90;;;;;;4994342;28;20031;-76
2021/07/21 03:26:07;;;;;;;0.93;0.93;;;23.30;99.90;;;;;;4994286;28;20033;-77
2021/07/21 03:28:33;;;;;;;1.10;1.05;;;23.30;99.90;;;;;;4976609;28;20086;-77
2021/07/21 03:31:00;;;;;;;1.33;1.23;;;23.00;99.90;;;;;;4994421;28;20441;-77
2021/07/21 03:33:28;;;;;;;1.67;1.58;;;22.80;99.90;;;;;;4994244;28;20054;-76
2021/07/21 03:35:59;;;;;;;1.35;1.25;;;22.80;99.90;;;;;;4994336;28;20105;-76
2021/07/21 03:38:26;;;;;;;0.85;0.85;;;23.20;99.90;;;;;;4993652;28;20042;-77
2021/07/21 03:40:52;;;;;;;1.02;1.02;;;23.30;99.90;;;;;;4994297;28;20033;-76
2021/07/21 03:43:19;;;;;;;1.83;1.70;;;23.30;99.90;;;;;;4993621;28;20113;-77
2021/07/21 03:45:45;;;;;;;2.97;1.95;;;23.40;99.90;;;;;;4993756;28;20486;-75
2021/07/21 03:48:11;;;;;;;1.65;1.55;;;23.30;99.90;;;;;;4993650;28;20042;-77
2021/07/21 03:50:37;;;;;;;1.63;1.52;;;23.30;99.90;;;;;;4994006;28;20032;-76
2021/07/21 03:53:04;;;;;;;1.60;1.25;;;23.10;99.90;;;;;;4993800;28;20686;-76
2021/07/21 03:55:31;;;;;;;2.17;1.35;;;23.10;99.90;;;;;;4993942;28;20479;-77
2021/07/21 03:57:57;;;;;;;1.20;1.10;;;23.20;99.90;;;;;;4993620;28;20038;-77
2021/07/21 04:00:24;;;;;;;3.90;3.33;;;23.30;99.90;;;;;;4993580;28;20034;-76
2021/07/21 04:02:55;;;;;;;0.90;0.90;;;23.40;99.90;;;;;;4976097;28;20438;-76
2021/07/21 04:05:25;;;;;;;6.13;2.25;;;23.40;99.90;;;;;;4993060;28;20050;-77
2021/07/21 04:07:53;;;;;;;3.30;1.75;;;23.50;99.90;;;;;;4993428;28;20038;-75
2021/07/21 04:10:19;;;;;;;2.05;1.42;;;23.50;99.90;;;;;;4993261;28;20390;-76
2021/07/21 04:12:52;;;;;;;1.33;1.23;;;23.60;99.90;;;;;;4993175;28;20050;-75
2021/07/21 04:15:21;;;;;;;2.25;1.98;;;23.50;99.90;;;;;;4993326;28;20525;-76
2021/07/21 04:17:49;;;;;;;1.70;1.60;;;23.60;99.90;;;;;;4993527;28;20038;-76
2021/07/21 04:20:16;;;;;;;1.23;1.13;;;23.60;99.90;;;;;;4992929;28;20464;-76
2021/07/21 04:22:42;;;;;;;1.25;1.20;;;23.60;99.90;;;;;;4993354;28;20188;-76
2021/07/21 04:25:13;;;;;;;1.40;1.30;;;23.60;99.90;;;;;;4993399;28;20034;-76
2021/07/21 04:27:41;;;;;;;1.00;1.00;;;23.50;99.90;;;;;;4993084;28;20037;-75
2021/07/21 04:30:08;;;;;;;1.70;1.60;;;23.40;99.90;;;;;;4993468;28;20034;-76
2021/07/21 04:32:35;;;;;;;12.65;2.10;;;23.50;99.90;;;;;;4993332;28;20046;-76
2021/07/21 04:35:03;;;;;;;1.40;1.30;;;23.40;99.90;;;;;;4993103;28;20057;-77
2021/07/21 04:37:29;;;;;;;4.90;2.63;;;23.40;99.90;;;;;;4992844;28;20044;-76
2021/07/21 04:39:55;;;;;;;0.80;0.80;;;23.50;99.90;;;;;;4993131;28;20475;-78
2021/07/21 04:42:27;;;;;;;1.55;1.45;;;23.50;99.90;;;;;;4993189;28;20391;-76
2021/07/21 04:44:53;;;;;;;1.42;1.33;;;23.60;99.90;;;;;;4993081;28;20373;-76
2021/07/21 04:47:19;;;;;;;1.60;1.50;;;23.30;99.90;;;;;;4975485;28;20490;-75
2021/07/21 04:49:45;;;;;;;1.20;1.20;;;23.40;99.90;;;;;;4974932;28;20045;-77
2021/07/21 04:52:14;;;;;;;4.22;1.80;;;23.30;99.90;;;;;;4975364;28;20038;-78
2021/07/21 04:54:40;;;;;;;2.05;1.85;;;23.20;99.90;;;;;;4974980;28;20043;-76
2021/07/21 04:57:10;;;;;;;0.98;0.95;;;23.10;99.90;;;;;;4992904;28;20114;-76
2021/07/21 04:59:37;;;;;;;1.70;1.55;;;23.20;99.90;;;;;;4992260;28;20034;-77
2021/07/21 05:02:05;;;;;;;2.08;1.40;;;23.20;99.90;;;;;;4992715;28;20041;-77
2021/07/21 05:04:32;;;;;;;0.95;0.93;;;23.20;99.90;;;;;;4974748;28;20041;-77
2021/07/21 05:06:58;;;;;;;1.92;1.17;;;23.20;99.90;;;;;;4992427;28;20030;-77
2021/07/21 05:09:24;;;;;;;2.50;2.10;;;23.50;99.90;;;;;;4992184;28;20060;-76
2021/07/21 05:11:52;;;;;;;1.08;0.98;;;23.70;99.90;;;;;;4974509;28;20050;-77
2021/07/21 05:14:18;;;;;;;1.65;1.55;;;23.70;99.90;;;;;;4974532;28;20058;-74
2021/07/21 05:16:44;;;;;;;3.13;2.83;;;24.00;99.90;;;;;;4992128;28;20396;-76
2021/07/21 05:19:11;;;;;;;5.68;3.38;;;24.20;99.90;;;;;;4974502;28;20474;-73
2021/07/21 05:21:37;;;;;;;1.67;1.58;;;24.20;99.90;;;;;;4992085;28;20081;-75
2021/07/21 05:24:03;;;;;;;2.10;2.00;;;24.20;99.90;;;;;;4992141;28;20038;-75
2021/07/21 05:26:29;;;;;;;0.90;0.90;;;24.40;99.90;;;;;;4992315;28;20026;-74
2021/07/21 05:28:55;;;;;;;1.42;1.33;;;24.50;99.90;;;;;;4991344;28;20105;-74
2021/07/21 05:31:21;;;;;;;1.58;1.45;;;24.60;99.90;;;;;;4991947;28;20034;-77
2021/07/21 05:33:46;;;;;;;1.73;1.60;;;24.60;99.90;;;;;;4991883;28;20085;-75
2021/07/21 05:36:12;;;;;;;4.55;4.05;;;24.60;99.90;;;;;;4992085;28;20062;-76
2021/07/21 05:38:38;;;;;;;2.15;1.98;;;24.70;99.90;;;;;;4991264;28;20045;-77
2021/07/21 05:41:06;;;;;;;3.15;2.00;;;24.70;99.90;;;;;;4992025;28;20037;-76
2021/07/21 05:43:32;;;;;;;1.45;1.35;;;24.80;99.90;;;;;;4991148;28;20034;-75
2021/07/21 05:45:58;;;;;;;0.93;0.93;;;24.90;99.90;;;;;;4992366;28;20027;-77
2021/07/21 05:48:24;;;;;;;1.65;1.55;;;25.10;99.90;;;;;;4991425;28;20046;-76
2021/07/21 05:50:49;;;;;;;2.17;1.35;;;25.10;99.90;;;;;;4991422;28;20367;-76
2021/07/21 05:53:15;;;;;;;0.82;0.82;;;25.00;99.90;;;;;;4991471;28;20050;-76
2021/07/21 05:55:41;;;;;;;3.42;1.98;;;24.60;99.90;;;;;;4992087;28;20514;-76
2021/07/21 05:58:08;;;;;;;2.15;1.83;;;24.50;99.90;;;;;;4991229;28;20037;-78
2021/07/21 06:00:34;;;;;;;1.40;1.30;;;24.40;99.90;;;;;;4991832;28;20038;-77
2021/07/21 06:03:00;;;;;;;1.20;1.10;;;24.60;99.90;;;;;;4974228;28;20034;-77
2021/07/21 06:05:25;;;;;;;1.48;1.38;;;24.70;99.90;;;;;;4991265;28;20054;-77
2021/07/21 06:07:51;;;;;;;2.03;1.88;;;25.00;99.90;;;;;;4989994;28;20030;-77
2021/07/21 06:10:17;;;;;;;0.98;0.90;;;25.10;99.90;;;;;;4989994;28;20541;-77
2021/07/21 06:12:43;;;;;;;1.70;1.58;;;25.10;99.90;;;;;;4989910;28;20046;-75
2021/07/21 06:15:09;;;;;;;0.90;0.90;;;25.20;99.90;;;;;;4990978;28;20084;-77
2021/07/21 06:17:35;;;;;;;0.70;0.70;;;25.20;99.90;;;;;;4991206;28;20046;-77
2021/07/21 06:20:04;;;;;;;2.30;1.67;;;25.30;99.90;;;;;;4991004;28;20031;-77
2021/07/21 06:22:33;;;;;;;2.00;1.80;;;24.80;99.90;;;;;;4991371;28;20118;-77
2021/07/21 06:25:00;;;;;;;1.00;1.00;;;24.20;99.90;;;;;;4991469;28;20034;-77
2021/07/21 06:27:26;;;;;;;1.75;1.65;;;24.40;99.90;;;;;;4992580;28;20430;-75
2021/07/21 06:29:52;;;;;;;5.50;1.92;;;24.60;99.90;;;;;;4977333;28;20497;-78
2021/07/21 06:32:18;;;;;;;1.27;1.17;;;24.70;99.90;;;;;;4995196;28;20042;-77
2021/07/21 06:34:44;;;;;;;1.20;1.15;;;24.60;99.90;;;;;;4994785;28;20044;-78
2021/07/21 06:37:10;;;;;;;1.23;1.13;;;24.00;99.90;;;;;;4994636;28;20099;-76
2021/07/21 06:39:35;;;;;;;1.55;1.45;;;23.90;99.90;;;;;;4994943;28;20068;-76
2021/07/21 06:42:01;;;;;;;1.38;1.27;;;24.10;99.90;;;;;;4994986;28;20085;-77
2021/07/21 06:44:27;;;;;;;1.02;0.90;;;24.30;99.90;;;;;;4994906;28;20548;-77
2021/07/21 06:46:53;;;;;;;0.88;0.88;;;24.30;99.90;;;;;;4994978;28;20034;-77
2021/07/21 06:49:19;;;;;;;3.13;1.58;;;24.50;99.90;;;;;;4994963;28;20031;-77
2021/07/21 06:51:45;;;;;;;1.20;1.13;;;24.30;99.90;;;;;;4994875;28;20038;-77
2021/07/21 06:54:11;;;;;;;1.10;1.02;;;24.50;99.90;;;;;;4994522;28;20073;-77
2021/07/21 06:56:37;;;;;;;0.95;0.95;;;24.70;99.90;;;;;;4994923;28;20113;-76
2021/07/21 06:59:02;;;;;;;1.63;1.45;;;24.70;99.90;;;;;;4994432;28;20039;-77
2021/07/21 07:01:28;;;;;;;0.80;0.80;;;24.80;99.90;;;;;;4994648;28;20153;-77
2021/07/21 07:03:54;;;;;;;0.95;0.93;;;24.50;99.60;;;;;;4994628;28;20034;-76
2021/07/21 07:06:20;;;;;;;2.10;1.42;;;24.70;99.90;;;;;;4994241;28;20041;-77
2021/07/21 07:08:45;;;;;;;1.58;1.48;;;25.10;99.90;;;;;;4994172;28;20042;-76
2021/07/21 07:11:11;;;;;;;0.93;0.88;;;25.00;99.90;;;;;;4994328;28;20039;-77
2021/07/21 07:13:38;;;;;;;0.77;0.77;;;25.00;98.80;;;;;;4976898;28;20045;-77
2021/07/21 07:16:05;;;;;;;1.77;1.67;;;25.20;99.00;;;;;;4994881;28;20046;-77
2021/07/21 07:18:30;;;;;;;2.28;1.30;;;25.30;99.60;;;;;;4994175;28;20047;-77
2021/07/21 07:20:57;;;;;;;1.58;1.15;;;24.80;98.70;;;;;;4994678;28;20033;-77
2021/07/21 07:23:23;;;;;;;2.17;1.98;;;24.70;98.60;;;;;;4994120;28;20070;-75
2021/07/21 07:25:49;;;;;;;1.00;1.00;;;25.00;98.80;;;;;;4976760;28;20097;-77
2021/07/21 07:28:15;;;;;;;1.33;1.23;;;24.70;96.60;;;;;;4993963;28;20026;-77
2021/07/21 07:30:41;;;;;;;3.60;1.63;;;24.60;97.50;;;;;;4994800;28;20043;-77
2021/07/21 07:33:07;;;;;;;13.88;2.63;;;24.70;97.20;;;;;;4993796;28;20046;-77
2021/07/21 07:35:34;;;;;;;2.05;1.45;;;24.80;96.50;;;;;;4994302;28;20030;-77
2021/07/21 07:38:00;;;;;;;8.50;2.45;;;25.10;96.10;;;;;;4994002;28;20109;-77
2021/07/21 07:40:26;;;;;;;0.85;0.85;;;25.10;95.50;;;;;;4993898;28;20689;-77
2021/07/21 07:42:52;;;;;;;2.60;2.40;;;25.40;96.00;;;;;;4994162;28;20478;-77
2021/07/21 07:45:18;;;;;;;1.92;1.25;;;25.40;95.10;;;;;;4994215;28;20395;-77
2021/07/21 07:47:44;;;;;;;0.82;0.82;;;25.40;94.10;;;;;;4993667;28;20034;-75
2021/07/21 07:50:12;;;;;;;1.00;1.00;;;25.20;93.80;;;;;;4993534;28;20066;-76
2021/07/21 07:52:38;;;;;;;1.15;1.05;;;25.10;94.10;;;;;;4993955;28;20034;-77
2021/07/21 07:55:05;;;;;;;2.78;1.77;;;25.30;94.40;;;;;;4993477;28;20042;-76
2021/07/21 07:57:31;;;;;;;2.03;1.17;;;25.00;94.50;;;;;;4993611;28;20156;-77
2021/07/21 07:59:57;;;;;;;1.63;1.52;;;25.30;94.30;;;;;;4993421;28;20117;-77
2021/07/21 08:02:23;;;;;;;2.97;1.33;;;25.10;94.10;;;;;;4993494;28;20038;-77
2021/07/21 08:04:48;;;;;;;1.75;1.35;;;25.30;93.60;;;;;;4975769;28;20046;-76
2021/07/21 08:07:14;;;;;;;1.08;0.90;;;25.30;92.80;;;;;;4976031;28;20069;-77
2021/07/21 08:09:40;;;;;;;2.63;1.30;;;25.10;91.70;;;;;;4993565;28;20078;-77
2021/07/21 08:12:06;;;;;;;1.27;1.17;;;25.20;91.50;;;;;;4993160;28;20042;-77
2021/07/21 08:14:32;;;;;;;0.70;0.70;;;25.20;90.70;;;;;;4975872;28;20057;-77
2021/07/21 08:16:59;;;;;;;0.80;0.80;;;25.40;91.00;;;;;;4993255;28;20034;-77
2021/07/21 08:19:25;;;;;;;3.10;1.52;;;25.70;91.50;;;;;;4992844;28;20061;-77
2021/07/21 08:21:51;;;;;;;2.45;1.83;;;25.90;88.20;;;;;;4993228;28;20070;-77
2021/07/21 08:24:18;;;;;;;1.65;1.55;;;25.40;88.70;;;;;;4993095;28;20045;-77
2021/07/21 08:26:45;;;;;;;0.85;0.85;;;25.50;89.20;;;;;;4992607;28;20034;-77
2021/07/21 08:29:11;;;;;;;0.80;0.80;;;25.60;90.40;;;;;;4993073;28;20556;-77
2021/07/21 08:31:38;;;;;;;1.55;1.45;;;25.80;88.90;;;;;;4993241;28;20113;-77
2021/07/21 08:34:05;;;;;;;3.30;2.65;;;26.00;88.40;;;;;;4992214;28;20374;-77
2021/07/21 08:36:35;;;;;;;15.20;1.75;;;26.10;85.60;;;;;;4992864;28;20172;-77
2021/07/21 08:39:03;;;;;;;9.73;2.20;;;25.90;86.60;;;;;;4992939;28;20031;-76
2021/07/21 08:41:29;;;;;;;1.58;1.35;;;25.40;86.40;;;;;;4992624;28;20023;-76
2021/07/21 08:43:56;;;;;;;2.40;2.15;;;25.60;87.80;;;;;;4992862;28;20045;-76
2021/07/21 08:46:22;;;;;;;1.63;1.52;;;26.10;86.50;;;;;;4992832;28;20113;-76
2021/07/21 08:48:52;;;;;;;0.90;0.90;;;26.40;85.10;;;;;;4992414;28;20382;-77
2021/07/21 08:51:21;;;;;;;0.63;0.63;;;26.70;82.30;;;;;;4992037;28;20034;-76
2021/07/21 08:53:49;;;;;;;1.10;1.00;;;26.90;77.70;;;;;;4992624;28;20038;-76
2021/07/21 08:56:16;;;;;;;1.35;1.25;;;27.10;75.60;;;;;;4992411;28;20030;-77
2021/07/21 08:58:45;;;;;;;0.80;0.80;;;27.20;76.00;;;;;;4992502;28;20031;-77
2021/07/21 09:01:11;;;;;;;2.08;1.50;;;27.00;75.50;;;;;;4992353;28;20046;-76
2021/07/21 09:03:37;;;;;;;0.60;0.60;;;27.00;75.80;;;;;;4992389;28;20026;-77
2021/07/21 09:06:03;;;;;;;1.55;1.27;;;26.90;74.00;;;;;;4992384;28;20037;-77
2021/07/21 09:08:32;;;;;;;0.70;0.70;;;27.10;73.50;;;;;;4992267;28;20504;-77
2021/07/21 09:10:58;;;;;;;1.02;1.02;;;27.20;71.60;;;;;;4991831;28;20034;-77
2021/07/21 09:13:24;;;;;;;1.77;1.17;;;27.40;71.50;;;;;;4992261;28;20042;-77
2021/07/21 09:15:50;;;;;;;0.68;0.68;;;27.40;69.40;;;;;;4992511;28;20109;-77
2021/07/21 09:18:17;;;;;;;0.70;0.70;;;27.40;68.30;;;;;;4991906;28;20034;-77
2021/07/21 09:20:45;;;;;;;0.77;0.77;;;27.50;70.20;;;;;;4992031;28;20113;-77
2021/07/21 09:23:11;;;;;;;0.63;0.63;;;27.70;68.00;;;;;;4992221;28;20034;-77
2021/07/21 09:25:38;;;;;;;0.68;0.68;;;27.90;69.00;;;;;;4991880;28;20118;-76
2021/07/21 09:28:07;;;;;;;0.80;0.80;;;27.90;63.20;;;;;;4992122;28;20430;-75
2021/07/21 09:30:45;;;;;;;0.77;0.77;;;27.70;65.30;;;;;;4992391;28;20052;-78
2021/07/21 09:33:17;;;;;;;0.60;0.60;;;27.80;65.60;;;;;;4991790;28;20073;-77
2021/07/21 09:35:46;;;;;;;0.63;0.60;;;27.80;62.60;;;;;;4974464;28;20121;-77
2021/07/21 09:38:21;;;;;;;1.65;1.10;;;27.70;63.50;;;;;;4991840;28;20453;-78
2021/07/21 09:40:50;;;;;;;0.57;0.57;;;27.30;63.30;;;;;;4974168;28;20034;-75
2021/07/21 09:43:18;;;;;;;1.58;0.68;;;27.50;63.30;;;;;;4991664;28;20038;-76
2021/07/21 09:45:45;;;;;;;0.43;0.43;;;27.90;63.60;;;;;;4992036;28;20411;-77
2021/07/21 09:48:12;;;;;;;0.82;0.82;;;28.00;62.00;;;;;;4991976;28;20073;-76
2021/07/21 09:50:46;;;;;;;0.60;0.60;;;28.20;61.60;;;;;;4991823;28;20497;-77
2021/07/21 09:53:13;;;;;;;1.80;1.25;;;27.80;62.20;;;;;;4973993;28;20046;-76
2021/07/21 09:55:41;;;;;;;1.25;1.15;;;28.30;62.60;;;;;;4991825;28;20084;-77
2021/07/21 09:58:24;;;;;;;0.50;0.50;;;28.80;60.40;;;;;;4991465;28;20026;-77
2021/07/21 10:00:50;;;;;;;1.73;1.33;;;28.90;60.60;;;;;;4992381;28;20449;-76
2021/07/21 10:03:16;;;;;;;1.00;1.00;;;27.80;61.40;;;;;;4995330;28;20106;-74
2021/07/21 10:06:07;;;;;;;0.47;0.47;;;28.20;62.00;;;;;;4995208;28;20415;-77
2021/07/21 10:08:43;;;;;;;1.48;1.10;;;28.40;61.90;;;;;;5004335;28;20038;-75
2021/07/21 10:11:30;;;;;;;0.50;0.50;;;29.20;61.50;;;;;;5002794;28;20038;-76
2021/07/21 10:14:08;;;;;;;0.75;0.60;;;29.50;59.50;;;;;;5004471;28;20042;-76
2021/07/21 10:16:36;;;;;;;1.10;1.02;;;29.30;59.50;;;;;;5005085;28;20048;-76
2021/07/21 10:19:06;;;;;;;1.13;1.05;;;29.20;59.20;;;;;;4998674;28;20031;-75
2021/07/21 10:21:32;;;;;;;3.10;2.80;;;29.20;58.50;;;;;;5002585;28;20018;-76
2021/07/21 10:23:58;;;;;;;0.40;0.40;;;29.10;59.20;;;;;;5000102;28;20474;-78
2021/07/21 10:26:27;;;;;;;0.50;0.50;;;29.70;58.80;;;;;;5004033;28;20033;-77
2021/07/21 10:28:54;;;;;;;0.30;0.30;;;29.70;58.10;;;;;;5004118;28;20046;-75
2021/07/21 10:31:20;;;;;;;0.40;0.40;;;29.60;58.10;;;;;;5002478;28;20030;-77
2021/07/21 10:33:47;;;;;;;0.63;0.55;;;29.80;58.90;;;;;;5003918;28;20038;-75
2021/07/21 10:36:13;;;;;;;1.45;1.30;;;29.80;57.80;;;;;;5002507;28;20133;-76
2021/07/21 10:38:39;;;;;;;0.30;0.30;;;30.10;57.20;;;;;;5004271;28;20034;-76
2021/07/21 10:41:05;;;;;;;2.05;1.48;;;30.00;57.70;;;;;;5003285;28;20037;-76
2021/07/21 10:43:31;;;;;;;0.45;0.45;;;30.20;57.70;;;;;;4999962;28;20474;-76
2021/07/21 10:45:57;;;;;;;1.40;1.30;;;30.40;58.50;;;;;;4995547;28;20053;-75
2021/07/21 10:48:44;;;;;;;0.50;0.50;;;30.10;56.90;;;;;;4977438;28;20305;-75
2021/07/21 10:54:31;;;;;;;1.00;0.93;;;30.50;57.10;;;;;;4966433;28;20046;-75
2021/07/21 11:00:05;;;;;;;3.80;1.35;;;30.20;56.80;;;;;;4999761;28;19933;-77
2021/07/21 11:02:32;;;;;;;0.70;0.70;;;30.30;56.90;;;;;;5001853;28;20379;-76
2021/07/21 11:04:57;;;;;;;0.50;0.50;;;30.50;56.90;;;;;;4999426;28;20095;-77
2021/07/21 11:07:52;;;;;;;2.47;0.63;;;30.60;56.00;;;;;;5003208;28;20030;-77
2021/07/21 11:10:35;;;;;;;0.30;0.30;;;30.80;56.60;;;;;;4999145;28;20545;-76
2021/07/21 11:13:03;;;;;;;0.60;0.60;;;30.70;56.60;;;;;;4998661;28;20039;-76
2021/07/21 11:15:44;;;;;;;0.85;0.77;;;30.40;57.00;;;;;;5002633;28;20038;-78
2021/07/21 11:18:22;;;;;;;1.20;1.10;;;30.60;56.80;;;;;;5002367;28;20054;-75
2021/07/21 11:21:11;;;;;;;0.73;0.73;;;30.80;57.80;;;;;;5002186;28;20437;-78
2021/07/21 11:23:47;;;;;;;0.67;0.67;;;30.70;55.80;;;;;;5003409;28;20483;-77
2021/07/21 11:26:34;;;;;;;0.40;0.40;;;29.50;54.80;;;;;;4986154;28;20038;-77
2021/07/21 11:29:22;;;;;;;0.50;0.50;;;30.20;56.80;;;;;;4982127;28;20034;-77
2021/07/21 11:31:53;;;;;;;0.50;0.50;;;30.80;55.40;;;;;;4982208;28;20038;-76
2021/07/21 11:34:33;;;;;;;0.28;0.28;;;30.20;55.50;;;;;;4998946;28;20038;-76
2021/07/21 11:37:08;;;;;;;0.63;0.63;;;31.00;56.30;;;;;;4999400;28;20022;-77
2021/07/21 11:39:52;;;;;;;0.80;0.73;;;31.50;55.90;;;;;;4996022;28;20031;-75
2021/07/21 11:42:23;;;;;;;1.88;1.35;;;31.60;55.50;;;;;;5003363;28;20373;-76
2021/07/21 11:44:50;;;;;;;0.40;0.40;;;31.90;54.70;;;;;;5002925;28;20462;-77
2021/07/21 11:47:20;;;;;;;1.42;1.10;;;30.70;53.90;;;;;;4998782;28;20030;-77
2021/07/21 11:49:50;;;;;;;;;;;31.20;55.30;;;;;;4994021;28;20481;-76
2021/07/21 11:52:18;;;;;;;0.50;0.50;;;31.60;55.50;;;;;;4997392;28;19917;-76
2021/07/21 11:54:44;;;;;;;0.82;0.70;;;31.20;55.10;;;;;;5003249;28;20038;-75
2021/07/21 11:57:10;;;;;;;2.10;1.45;;;30.70;54.80;;;;;;5010182;28;20394;-77
2021/07/21 11:59:41;;;;;;;0.60;0.60;;;30.20;53.60;;;;;;5013034;28;20071;-76
2021/07/21 12:02:12;;;;;;;0.47;0.47;;;30.00;54.70;;;;;;5013170;28;20061;-76
2021/07/21 12:04:42;;;;;;;0.73;0.73;;;30.60;54.80;;;;;;5000209;28;20454;-76
2021/07/21 12:07:10;;;;;;;0.85;0.70;;;31.30;54.20;;;;;;4988156;28;20042;-76
2021/07/21 12:09:42;;;;;;;0.63;0.63;;;31.70;52.90;;;;;;4989483;28;20125;-75
2021/07/21 12:12:12;;;;;;;0.47;0.47;;;32.00;53.60;;;;;;4991724;28;20050;-77
2021/07/21 12:14:39;;;;;;;1.13;0.67;;;31.60;53.80;;;;;;4992504;28;20046;-76
2021/07/21 12:17:13;;;;;;;0.93;0.93;;;31.00;54.20;;;;;;4988965;28;20275;-77
2021/07/21 12:19:42;;;;;;;0.88;0.82;;;30.90;54.90;;;;;;5012706;28;20432;-78
2021/07/21 12:22:12;;;;;;;2.35;0.88;;;30.90;55.20;;;;;;5012385;28;20117;-78
2021/07/21 12:24:44;;;;;;;0.40;0.40;;;31.10;54.80;;;;;;5008155;28;20388;-77
2021/07/21 12:27:12;;;;;;;0.50;0.50;;;30.20;55.00;;;;;;4995601;28;20043;-77
2021/07/21 12:29:38;;;;;;;1.13;0.95;;;29.50;54.70;;;;;;4993098;28;20433;-78
2021/07/21 12:32:15;;;;;;;1.55;1.45;;;29.70;56.80;;;;;;4993159;28;20125;-78
2021/07/21 12:34:47;;;;;;;1.00;0.85;;;30.10;56.80;;;;;;4992637;28;20512;-78
2021/07/21 12:37:18;;;;;;;0.75;0.75;;;30.60;55.80;;;;;;5006334;28;20711;-77
2021/07/21 12:39:46;;;;;;;0.85;0.85;;;31.10;54.40;;;;;;5004593;28;20027;-76
2021/07/21 12:42:17;;;;;;;1.65;1.00;;;31.20;54.70;;;;;;4993442;28;20044;-75
2021/07/21 12:44:44;;;;;;;0.65;0.60;;;31.20;55.40;;;;;;4992119;28;20046;-75
2021/07/21 12:47:14;;;;;;;1.75;1.30;;;31.20;54.20;;;;;;4992796;28;20034;-76
2021/07/21 12:49:41;;;;;;;;;;;30.90;54.80;;;;;;4992849;28;20037;-76
2021/07/21 12:52:11;;;;;;;1.02;0.93;;;30.70;55.40;;;;;;4992555;28;20258;-79
2021/07/21 12:54:37;;;;;;;0.57;0.57;;;30.60;56.00;;;;;;4992339;28;20077;-77
2021/07/21 12:57:03;;;;;;;1.25;0.60;;;30.50;55.60;;;;;;4992699;28;20030;-78
2021/07/21 12:59:36;;;;;;;2.10;0.85;;;30.50;56.60;;;;;;4992448;28;20042;-78
2021/07/21 13:02:15;;;;;;;1.17;0.88;;;30.80;55.90;;;;;;4992838;28;20038;-80
2021/07/21 13:04:41;;;;;;;0.55;0.47;;;30.90;56.30;;;;;;4991989;28;20031;-80